NCAR-RAP Real-Time Weather Data

Output produced by METARs form (19 June 2019  11:34 UTC)
found at http://weather.rap.ucar.edu/surface/
 
KGRI 191112Z AUTO 04005KT 1/4SM R35/1200V1600FT FG VV002 15/14 A2987 RMK AO2 T01500144 $
KGRI 191053Z AUTO 05005KT 1/2SM R35/1600V3000FT FG VV002 15/14 A2987 RMK AO2 SLP114 T01500144 $
KGRI 190953Z AUTO 02004KT 1/4SM R35/1400V1600FT FG VV002 14/14 A2987 RMK AO2 SLP114 T01440144 $
KGRI 190853Z AUTO 01005KT 1/4SM R35/1600FT FG VV002 15/14 A2987 RMK AO2 SLP112 T01500139 58005 $
KGRI 190839Z AUTO 01004KT 1/4SM R35/1200V2200FT FG VV002 15/14 A2987 RMK AO2 T01500139 $
KGRI 190830Z AUTO 04004KT 3/4SM R35/1800VP6000FT BR OVC003 15/14 A2988 RMK AO2 T01500144 $
KGRI 190827Z AUTO 03004KT 1 3/4SM R35/2800VP6000FT BR OVC005 15/14 A2988 RMK AO2 T01500144 $
KGRI 190806Z AUTO 05005KT 10SM BKN006 OVC029 15/14 A2988 RMK AO2 T01500139 $
KGRI 190753Z AUTO 02003KT 10SM SCT006 OVC029 16/14 A2989 RMK AO2 SLP117 T01560139 $
KGRI 190751Z AUTO 00000KT 10SM SCT006 OVC029 16/14 A2989 RMK AO2 $
KGRI 190653Z AUTO 03006KT 10SM OVC006 16/14 A2988 RMK AO2 SLP116 T01560139 $
KGRI 190553Z AUTO 03006KT 10SM OVC007 16/14 A2991 RMK AO2 SLP125 T01610139 10161 20156 401890156 58008
KGRI 190453Z AUTO 02007KT 10SM OVC008 16/14 A2992 RMK AO2 SLP130 T01610139
KGRI 190404Z AUTO 35005KT 10SM OVC009 16/13 A2994 RMK AO2 T01560133
KGRI 190353Z AUTO 36005KT 10SM OVC010 16/14 A2994 RMK AO2 SLP136 T01610139
KGRI 190253Z AUTO 04006KT 10SM OVC010 16/13 A2994 RMK AO2 SLP136 T01560133 58001
KGRI 190153Z AUTO 02007KT 10SM OVC012 16/13 A2995 RMK AO2 SLP139 T01560133
KGRI 190053Z 05009KT 10SM OVC012 16/13 A2993 RMK AO2 SLP133 T01610133
KGRI 182353Z 05010KT 10SM OVC014 16/13 A2994 RMK AO2 RAE2257 SLP136 P0000 60017 T01610133 10189 20156 56005
KGRI 182351Z 05011KT 10SM OVC014 16/13 A2994 RMK AO2 RAE2257 P0000
KGRI 182304Z 06015KT 10SM BKN015 OVC065 16/14 A2994 RMK AO2 RAE2257 P0000 T01610139
KGRI 182253Z 05013KT 10SM -RA BKN014 OVC070 16/14 A2994 RMK AO2 SLP136 P0001 T01610139
KGRI 182153Z 06015KT 9SM -RA OVC055 16/13 A2996 RMK AO2 PK WND 06026/2105 SLP142 P0001 T01560133
KGRI 182120Z 06015G24KT 10SM -RA SCT011 OVC055 16/13 A2996 RMK AO2 PK WND 06026/2105 P0000 T01560133
KGRI 182106Z 06021G26KT 10SM -RA BKN011 OVC055 16/13 A2997 RMK AO2 PK WND 06026/2105 P0000 T01610133
KGRI 182053Z 05019G25KT 7SM -RA OVC009 17/14 A2997 RMK AO2 PK WND 05027/2038 CIG 006V013 SLP144 P0003 60015 T01670144 55005
KGRI 181953Z 05012KT 7SM -RA BKN007 BKN010 OVC018 18/17 A2996 RMK AO2 SLP142 P0006 T01830172
KGRI 181853Z 08007KT 3SM -RA BR BKN007 OVC010 19/18 A2997 RMK AO2 SLP144 P0006 T01890178
KGRI 181800Z 07008KT 3SM -RA BR BKN007 BKN055 OVC080 19/17 A2998 RMK AO2 P0001 T01890172
KGRI 181753Z 07009KT 2 1/2SM -RA BR BKN007 BKN060 OVC090 19/17 A2998 RMK AO2 SLP148 P0004 60027 T01890172 10189 20172 58003
KGRI 181653Z 05008KT 2 1/2SM -RA BR BKN007 BKN055 OVC075 18/17 A2999 RMK AO2 SLP151 P0010 T01830172
KGRI 181630Z 04007KT 2 1/2SM RA BR OVC005 18/17 A2999 RMK AO2 P0005 T01830172
KGRI 181614Z VRB03KT 3SM -RA BR OVC005 18/17 A3000 RMK AO2 P0002 T01830167
KGRI 181553Z 01006KT 5SM -RA BR BKN006 BKN070 OVC095 18/17 A2999 RMK AO2 SLP150 P0002 T01830167
KGRI 181536Z 01007KT 5SM -RA BR BKN006 OVC095 18/17 A2999 RMK AO2 P0001 T01830172
KGRI 181524Z 01008KT 6SM -RA BR SCT006 OVC100 18/17 A2999 RMK AO2 P0001 T01830172
KGRI 181453Z 36007KT 6SM -RA BR OVC100 18/17 A2999 RMK AO2 SLP150 P0003 60011 T01780167 58004